Stepnogorsk, Kazakhstan
Current Conditions -  °F | °C
As of 7:30 AM on Friday 28 Nov 2014 (Local Time) from UACC Reporting Station
Scattered Clouds Scattered Clouds  
Wind Chill: -16°   Ceiling: Unl
Heat Index: -6°   Visibility: 4mi
Dew Point: -11°   Wind: 4mph
Humidity: 77%   Direction: 270°W
Pressure: 30.56"   Gusts: NA
Location:  52.18°N, 72.43°E
Report Text: UACC 280130Z 27002MPS 6000 SCT016 M21/M24 Q1035 R04/3/0060NOSIG RMK QFE744/0992
Loading
Personal Weather Stations






























Interactive Weather Map New forecast layout! Learn more

10-Day Weather Forecast

Advertisements
Track Severe Weather on mobile